sensor_id;sensor_type;location;lat;lon;timestamp;P1;durP1;ratioP1;P2;durP2;ratioP2
20966;SDS011;10642;50.682;18.510;2023-12-20T00:01:58;16.67;;;8.37;;
20966;SDS011;10642;50.682;18.510;2023-12-20T00:04:25;20.20;;;8.60;;
20966;SDS011;10642;50.682;18.510;2023-12-20T00:06:52;12.33;;;7.53;;
20966;SDS011;10642;50.682;18.510;2023-12-20T00:09:19;18.07;;;7.63;;
20966;SDS011;10642;50.682;18.510;2023-12-20T00:11:46;11.20;;;7.67;;
20966;SDS011;10642;50.682;18.510;2023-12-20T00:14:13;13.87;;;7.97;;
20966;SDS011;10642;50.682;18.510;2023-12-20T00:16:40;13.87;;;7.50;;
20966;SDS011;10642;50.682;18.510;2023-12-20T00:19:07;16.07;;;7.57;;
20966;SDS011;10642;50.682;18.510;2023-12-20T00:21:34;17.03;;;9.10;;
20966;SDS011;10642;50.682;18.510;2023-12-20T00:24:01;15.20;;;8.00;;
20966;SDS011;10642;50.682;18.510;2023-12-20T00:26:28;16.80;;;8.87;;
20966;SDS011;10642;50.682;18.510;2023-12-20T00:28:55;15.63;;;8.03;;
20966;SDS011;10642;50.682;18.510;2023-12-20T00:31:22;16.57;;;8.37;;
20966;SDS011;10642;50.682;18.510;2023-12-20T00:33:49;17.57;;;8.33;;
20966;SDS011;10642;50.682;18.510;2023-12-20T00:36:16;15.00;;;8.00;;
20966;SDS011;10642;50.682;18.510;2023-12-20T00:38:43;15.90;;;7.97;;
20966;SDS011;10642;50.682;18.510;2023-12-20T00:41:10;14.47;;;7.50;;
20966;SDS011;10642;50.682;18.510;2023-12-20T00:43:37;13.73;;;7.73;;
20966;SDS011;10642;50.682;18.510;2023-12-20T00:46:04;13.40;;;7.83;;
20966;SDS011;10642;50.682;18.510;2023-12-20T00:48:31;13.57;;;7.63;;
20966;SDS011;10642;50.682;18.510;2023-12-20T00:50:58;14.87;;;8.00;;
20966;SDS011;10642;50.682;18.510;2023-12-20T00:53:25;14.37;;;7.40;;
20966;SDS011;10642;50.682;18.510;2023-12-20T00:55:52;13.00;;;7.43;;
20966;SDS011;10642;50.682;18.510;2023-12-20T00:58:19;14.57;;;8.17;;
20966;SDS011;10642;50.682;18.510;2023-12-20T01:00:46;15.40;;;8.70;;
20966;SDS011;10642;50.682;18.510;2023-12-20T01:03:13;19.67;;;8.60;;
20966;SDS011;10642;50.682;18.510;2023-12-20T01:05:42;16.50;;;7.90;;
20966;SDS011;10642;50.682;18.510;2023-12-20T01:08:09;14.80;;;7.77;;
20966;SDS011;10642;50.682;18.510;2023-12-20T01:10:36;17.07;;;7.97;;
20966;SDS011;10642;50.682;18.510;2023-12-20T01:13:03;13.93;;;7.63;;
20966;SDS011;10642;50.682;18.510;2023-12-20T01:15:30;17.87;;;9.50;;
20966;SDS011;10642;50.682;18.510;2023-12-20T01:17:57;19.57;;;8.27;;
20966;SDS011;10642;50.682;18.510;2023-12-20T01:20:26;14.37;;;6.90;;
20966;SDS011;10642;50.682;18.510;2023-12-20T01:22:53;16.47;;;8.33;;
20966;SDS011;10642;50.682;18.510;2023-12-20T01:25:22;14.17;;;8.40;;
20966;SDS011;10642;50.682;18.510;2023-12-20T01:27:50;16.83;;;7.73;;
20966;SDS011;10642;50.682;18.510;2023-12-20T01:30:17;18.03;;;8.73;;
20966;SDS011;10642;50.682;18.510;2023-12-20T01:32:44;14.47;;;8.03;;
20966;SDS011;10642;50.682;18.510;2023-12-20T01:35:11;15.80;;;8.67;;
20966;SDS011;10642;50.682;18.510;2023-12-20T01:37:39;13.30;;;7.73;;
20966;SDS011;10642;50.682;18.510;2023-12-20T01:40:07;16.67;;;8.00;;
20966;SDS011;10642;50.682;18.510;2023-12-20T01:42:34;14.17;;;8.00;;
20966;SDS011;10642;50.682;18.510;2023-12-20T01:45:01;12.90;;;7.97;;
20966;SDS011;10642;50.682;18.510;2023-12-20T01:47:29;14.80;;;8.03;;
20966;SDS011;10642;50.682;18.510;2023-12-20T01:49:56;14.63;;;7.70;;
20966;SDS011;10642;50.682;18.510;2023-12-20T01:52:24;18.27;;;8.30;;
20966;SDS011;10642;50.682;18.510;2023-12-20T01:54:52;15.80;;;7.73;;
20966;SDS011;10642;50.682;18.510;2023-12-20T01:57:21;14.07;;;7.87;;
20966;SDS011;10642;50.682;18.510;2023-12-20T01:59:48;13.67;;;8.27;;
20966;SDS011;10642;50.682;18.510;2023-12-20T02:02:15;15.70;;;7.70;;
20966;SDS011;10642;50.682;18.510;2023-12-20T02:04:42;14.20;;;8.90;;
20966;SDS011;10642;50.682;18.510;2023-12-20T02:07:10;11.50;;;7.50;;
20966;SDS011;10642;50.682;18.510;2023-12-20T02:09:38;13.70;;;7.67;;
20966;SDS011;10642;50.682;18.510;2023-12-20T02:12:05;14.90;;;8.50;;
20966;SDS011;10642;50.682;18.510;2023-12-20T02:14:32;17.17;;;8.57;;
20966;SDS011;10642;50.682;18.510;2023-12-20T02:16:59;14.63;;;8.50;;
20966;SDS011;10642;50.682;18.510;2023-12-20T02:19:25;18.50;;;8.90;;
20966;SDS011;10642;50.682;18.510;2023-12-20T02:22:04;14.77;;;8.97;;
20966;SDS011;10642;50.682;18.510;2023-12-20T02:24:31;17.47;;;9.07;;
20966;SDS011;10642;50.682;18.510;2023-12-20T02:26:58;14.93;;;7.70;;
20966;SDS011;10642;50.682;18.510;2023-12-20T02:29:25;12.97;;;7.20;;
20966;SDS011;10642;50.682;18.510;2023-12-20T02:31:52;13.97;;;7.23;;
20966;SDS011;10642;50.682;18.510;2023-12-20T02:34:19;14.13;;;8.17;;
20966;SDS011;10642;50.682;18.510;2023-12-20T02:36:46;13.00;;;8.20;;
20966;SDS011;10642;50.682;18.510;2023-12-20T02:39:13;15.57;;;8.13;;
20966;SDS011;10642;50.682;18.510;2023-12-20T02:41:40;15.63;;;7.83;;
20966;SDS011;10642;50.682;18.510;2023-12-20T02:44:07;16.77;;;9.23;;
20966;SDS011;10642;50.682;18.510;2023-12-20T02:46:34;14.70;;;8.70;;
20966;SDS011;10642;50.682;18.510;2023-12-20T02:49:01;20.60;;;9.67;;
20966;SDS011;10642;50.682;18.510;2023-12-20T02:51:28;17.93;;;9.70;;
20966;SDS011;10642;50.682;18.510;2023-12-20T02:53:55;18.73;;;10.37;;
20966;SDS011;10642;50.682;18.510;2023-12-20T02:56:22;18.50;;;10.07;;
20966;SDS011;10642;50.682;18.510;2023-12-20T02:58:49;15.50;;;9.07;;
20966;SDS011;10642;50.682;18.510;2023-12-20T03:01:16;17.90;;;10.03;;
20966;SDS011;10642;50.682;18.510;2023-12-20T03:03:43;17.97;;;10.07;;
20966;SDS011;10642;50.682;18.510;2023-12-20T03:06:09;21.77;;;10.17;;
20966;SDS011;10642;50.682;18.510;2023-12-20T03:08:36;18.00;;;9.27;;
20966;SDS011;10642;50.682;18.510;2023-12-20T03:11:03;14.90;;;9.00;;
20966;SDS011;10642;50.682;18.510;2023-12-20T03:13:30;18.57;;;9.23;;
20966;SDS011;10642;50.682;18.510;2023-12-20T03:15:57;15.20;;;8.87;;
20966;SDS011;10642;50.682;18.510;2023-12-20T03:18:24;16.23;;;8.17;;
20966;SDS011;10642;50.682;18.510;2023-12-20T03:20:51;17.73;;;10.03;;
20966;SDS011;10642;50.682;18.510;2023-12-20T03:23:18;14.80;;;8.83;;
20966;SDS011;10642;50.682;18.510;2023-12-20T03:25:45;12.33;;;7.50;;
20966;SDS011;10642;50.682;18.510;2023-12-20T03:28:14;12.80;;;7.57;;
20966;SDS011;10642;50.682;18.510;2023-12-20T03:30:41;14.30;;;7.70;;
20966;SDS011;10642;50.682;18.510;2023-12-20T03:33:08;13.77;;;6.67;;
20966;SDS011;10642;50.682;18.510;2023-12-20T03:35:35;10.00;;;7.37;;
20966;SDS011;10642;50.682;18.510;2023-12-20T03:38:02;10.03;;;6.70;;
20966;SDS011;10642;50.682;18.510;2023-12-20T03:40:29;10.97;;;6.80;;
20966;SDS011;10642;50.682;18.510;2023-12-20T03:42:56;10.60;;;6.43;;
20966;SDS011;10642;50.682;18.510;2023-12-20T03:45:23;10.80;;;6.60;;
20966;SDS011;10642;50.682;18.510;2023-12-20T03:47:50;10.53;;;6.07;;
20966;SDS011;10642;50.682;18.510;2023-12-20T03:50:22;7.57;;;5.83;;
20966;SDS011;10642;50.682;18.510;2023-12-20T03:52:49;8.17;;;5.40;;
20966;SDS011;10642;50.682;18.510;2023-12-20T03:55:16;8.70;;;5.53;;
20966;SDS011;10642;50.682;18.510;2023-12-20T03:57:43;7.67;;;5.00;;
20966;SDS011;10642;50.682;18.510;2023-12-20T04:00:10;8.63;;;5.13;;
20966;SDS011;10642;50.682;18.510;2023-12-20T04:02:38;8.57;;;5.63;;
20966;SDS011;10642;50.682;18.510;2023-12-20T04:05:05;8.27;;;5.00;;
20966;SDS011;10642;50.682;18.510;2023-12-20T04:07:33;7.73;;;5.20;;
20966;SDS011;10642;50.682;18.510;2023-12-20T04:10:00;7.43;;;5.00;;
20966;SDS011;10642;50.682;18.510;2023-12-20T04:12:27;9.10;;;5.03;;
20966;SDS011;10642;50.682;18.510;2023-12-20T04:14:54;7.43;;;5.03;;
20966;SDS011;10642;50.682;18.510;2023-12-20T04:17:21;7.23;;;4.87;;
20966;SDS011;10642;50.682;18.510;2023-12-20T04:19:49;7.97;;;5.10;;
20966;SDS011;10642;50.682;18.510;2023-12-20T04:22:17;8.43;;;5.37;;
20966;SDS011;10642;50.682;18.510;2023-12-20T04:24:44;7.77;;;4.53;;
20966;SDS011;10642;50.682;18.510;2023-12-20T04:27:11;7.77;;;4.50;;
20966;SDS011;10642;50.682;18.510;2023-12-20T04:29:38;8.13;;;5.10;;
20966;SDS011;10642;50.682;18.510;2023-12-20T04:32:05;6.97;;;5.27;;
20966;SDS011;10642;50.682;18.510;2023-12-20T04:34:32;7.33;;;4.70;;
20966;SDS011;10642;50.682;18.510;2023-12-20T04:36:59;7.78;;;4.95;;
20966;SDS011;10642;50.682;18.510;2023-12-20T04:39:28;8.33;;;5.07;;
20966;SDS011;10642;50.682;18.510;2023-12-20T04:41:55;8.07;;;5.30;;
20966;SDS011;10642;50.682;18.510;2023-12-20T04:44:22;7.13;;;4.83;;
20966;SDS011;10642;50.682;18.510;2023-12-20T04:46:50;9.07;;;5.57;;
20966;SDS011;10642;50.682;18.510;2023-12-20T04:49:17;8.07;;;4.90;;
20966;SDS011;10642;50.682;18.510;2023-12-20T04:51:44;8.97;;;4.60;;
20966;SDS011;10642;50.682;18.510;2023-12-20T04:54:11;9.83;;;4.50;;
20966;SDS011;10642;50.682;18.510;2023-12-20T04:56:38;10.13;;;5.47;;
20966;SDS011;10642;50.682;18.510;2023-12-20T04:59:05;7.77;;;5.50;;
20966;SDS011;10642;50.682;18.510;2023-12-20T05:01:32;8.07;;;4.97;;
20966;SDS011;10642;50.682;18.510;2023-12-20T05:03:59;8.47;;;5.17;;
20966;SDS011;10642;50.682;18.510;2023-12-20T05:06:26;10.53;;;5.33;;
20966;SDS011;10642;50.682;18.510;2023-12-20T05:08:53;6.87;;;4.77;;
20966;SDS011;10642;50.682;18.510;2023-12-20T05:11:20;8.20;;;5.97;;
20966;SDS011;10642;50.682;18.510;2023-12-20T05:13:47;7.97;;;5.27;;
20966;SDS011;10642;50.682;18.510;2023-12-20T05:16:16;8.07;;;4.90;;
20966;SDS011;10642;50.682;18.510;2023-12-20T05:18:46;7.13;;;5.00;;
20966;SDS011;10642;50.682;18.510;2023-12-20T05:21:13;9.03;;;5.30;;
20966;SDS011;10642;50.682;18.510;2023-12-20T05:23:40;8.93;;;5.07;;
20966;SDS011;10642;50.682;18.510;2023-12-20T05:26:07;9.63;;;5.20;;
20966;SDS011;10642;50.682;18.510;2023-12-20T05:28:34;9.03;;;5.23;;
20966;SDS011;10642;50.682;18.510;2023-12-20T05:31:01;9.27;;;4.93;;
20966;SDS011;10642;50.682;18.510;2023-12-20T05:33:28;9.00;;;5.10;;
20966;SDS011;10642;50.682;18.510;2023-12-20T05:35:55;9.53;;;5.17;;
20966;SDS011;10642;50.682;18.510;2023-12-20T05:38:22;7.93;;;5.10;;
20966;SDS011;10642;50.682;18.510;2023-12-20T05:40:49;9.70;;;5.30;;
20966;SDS011;10642;50.682;18.510;2023-12-20T05:43:16;7.00;;;4.83;;
20966;SDS011;10642;50.682;18.510;2023-12-20T05:45:43;7.83;;;4.80;;
20966;SDS011;10642;50.682;18.510;2023-12-20T05:48:10;8.40;;;5.07;;
20966;SDS011;10642;50.682;18.510;2023-12-20T05:50:37;9.53;;;5.23;;
20966;SDS011;10642;50.682;18.510;2023-12-20T05:53:04;10.50;;;6.13;;
20966;SDS011;10642;50.682;18.510;2023-12-20T05:55:31;12.10;;;6.43;;
20966;SDS011;10642;50.682;18.510;2023-12-20T05:57:58;12.20;;;7.00;;
20966;SDS011;10642;50.682;18.510;2023-12-20T06:00:27;13.20;;;7.77;;
20966;SDS011;10642;50.682;18.510;2023-12-20T06:02:54;14.53;;;8.40;;
20966;SDS011;10642;50.682;18.510;2023-12-20T06:05:21;16.47;;;8.80;;
20966;SDS011;10642;50.682;18.510;2023-12-20T06:07:48;13.67;;;8.23;;
20966;SDS011;10642;50.682;18.510;2023-12-20T06:10:17;14.17;;;8.87;;
20966;SDS011;10642;50.682;18.510;2023-12-20T06:12:44;11.60;;;7.97;;
20966;SDS011;10642;50.682;18.510;2023-12-20T06:15:14;10.83;;;6.77;;
20966;SDS011;10642;50.682;18.510;2023-12-20T06:17:41;10.30;;;6.77;;
20966;SDS011;10642;50.682;18.510;2023-12-20T06:20:08;7.97;;;5.33;;
20966;SDS011;10642;50.682;18.510;2023-12-20T06:22:36;9.83;;;5.70;;
20966;SDS011;10642;50.682;18.510;2023-12-20T06:25:03;7.90;;;5.20;;
20966;SDS011;10642;50.682;18.510;2023-12-20T06:27:30;8.97;;;5.50;;
20966;SDS011;10642;50.682;18.510;2023-12-20T06:29:59;13.23;;;6.27;;
20966;SDS011;10642;50.682;18.510;2023-12-20T06:32:26;13.13;;;6.77;;
20966;SDS011;10642;50.682;18.510;2023-12-20T06:34:53;16.70;;;8.33;;
20966;SDS011;10642;50.682;18.510;2023-12-20T06:37:20;13.70;;;7.47;;
20966;SDS011;10642;50.682;18.510;2023-12-20T06:39:47;19.07;;;10.23;;
20966;SDS011;10642;50.682;18.510;2023-12-20T06:42:14;14.17;;;8.03;;
20966;SDS011;10642;50.682;18.510;2023-12-20T06:44:41;15.70;;;9.07;;
20966;SDS011;10642;50.682;18.510;2023-12-20T06:47:08;14.77;;;8.97;;
20966;SDS011;10642;50.682;18.510;2023-12-20T06:49:35;13.50;;;7.47;;
20966;SDS011;10642;50.682;18.510;2023-12-20T06:52:02;47.40;;;17.27;;
20966;SDS011;10642;50.682;18.510;2023-12-20T06:54:29;15.17;;;6.57;;
20966;SDS011;10642;50.682;18.510;2023-12-20T06:56:56;10.43;;;6.17;;
20966;SDS011;10642;50.682;18.510;2023-12-20T06:59:23;10.07;;;6.23;;
20966;SDS011;10642;50.682;18.510;2023-12-20T07:01:50;10.73;;;7.57;;
20966;SDS011;10642;50.682;18.510;2023-12-20T07:04:17;14.63;;;8.60;;
20966;SDS011;10642;50.682;18.510;2023-12-20T07:06:49;10.10;;;6.37;;
20966;SDS011;10642;50.682;18.510;2023-12-20T07:09:19;9.07;;;6.00;;
20966;SDS011;10642;50.682;18.510;2023-12-20T07:11:45;10.70;;;5.90;;
20966;SDS011;10642;50.682;18.510;2023-12-20T07:14:12;11.33;;;6.23;;
20966;SDS011;10642;50.682;18.510;2023-12-20T07:16:39;17.03;;;9.33;;
20966;SDS011;10642;50.682;18.510;2023-12-20T07:19:07;10.30;;;6.67;;
20966;SDS011;10642;50.682;18.510;2023-12-20T07:21:34;8.23;;;5.47;;
20966;SDS011;10642;50.682;18.510;2023-12-20T07:24:01;9.23;;;5.30;;
20966;SDS011;10642;50.682;18.510;2023-12-20T07:26:28;9.20;;;6.00;;
20966;SDS011;10642;50.682;18.510;2023-12-20T07:28:55;11.40;;;5.50;;
20966;SDS011;10642;50.682;18.510;2023-12-20T07:31:22;11.30;;;6.23;;
20966;SDS011;10642;50.682;18.510;2023-12-20T07:33:50;11.57;;;6.03;;
20966;SDS011;10642;50.682;18.510;2023-12-20T07:36:19;12.03;;;6.87;;
20966;SDS011;10642;50.682;18.510;2023-12-20T07:38:46;14.07;;;6.27;;
20966;SDS011;10642;50.682;18.510;2023-12-20T07:41:13;9.90;;;5.87;;
20966;SDS011;10642;50.682;18.510;2023-12-20T07:43:42;7.67;;;4.27;;
20966;SDS011;10642;50.682;18.510;2023-12-20T07:46:09;9.30;;;6.13;;
20966;SDS011;10642;50.682;18.510;2023-12-20T07:48:36;12.23;;;7.30;;
20966;SDS011;10642;50.682;18.510;2023-12-20T07:51:03;8.47;;;4.90;;
20966;SDS011;10642;50.682;18.510;2023-12-20T07:53:31;8.63;;;5.80;;
20966;SDS011;10642;50.682;18.510;2023-12-20T07:55:58;10.57;;;5.03;;
20966;SDS011;10642;50.682;18.510;2023-12-20T07:58:25;7.13;;;4.60;;
20966;SDS011;10642;50.682;18.510;2023-12-20T08:01:10;7.17;;;4.27;;
20966;SDS011;10642;50.682;18.510;2023-12-20T08:03:38;8.07;;;4.53;;
20966;SDS011;10642;50.682;18.510;2023-12-20T08:06:05;6.70;;;4.40;;
20966;SDS011;10642;50.682;18.510;2023-12-20T08:08:32;7.67;;;4.27;;
20966;SDS011;10642;50.682;18.510;2023-12-20T08:10:59;9.73;;;5.70;;
20966;SDS011;10642;50.682;18.510;2023-12-20T08:13:26;7.83;;;4.70;;
20966;SDS011;10642;50.682;18.510;2023-12-20T08:15:54;7.23;;;4.80;;
20966;SDS011;10642;50.682;18.510;2023-12-20T08:18:22;8.43;;;4.90;;
20966;SDS011;10642;50.682;18.510;2023-12-20T08:20:50;7.03;;;4.27;;
20966;SDS011;10642;50.682;18.510;2023-12-20T08:23:19;7.57;;;5.33;;
20966;SDS011;10642;50.682;18.510;2023-12-20T08:25:51;6.83;;;4.60;;
20966;SDS011;10642;50.682;18.510;2023-12-20T08:28:18;9.07;;;5.03;;
20966;SDS011;10642;50.682;18.510;2023-12-20T08:30:45;9.13;;;4.70;;
20966;SDS011;10642;50.682;18.510;2023-12-20T08:33:12;6.50;;;4.63;;
20966;SDS011;10642;50.682;18.510;2023-12-20T08:35:40;7.03;;;4.80;;
20966;SDS011;10642;50.682;18.510;2023-12-20T08:38:07;6.60;;;4.13;;
20966;SDS011;10642;50.682;18.510;2023-12-20T08:40:34;5.80;;;4.30;;
20966;SDS011;10642;50.682;18.510;2023-12-20T08:43:01;5.97;;;4.13;;
20966;SDS011;10642;50.682;18.510;2023-12-20T08:45:28;5.10;;;3.60;;
20966;SDS011;10642;50.682;18.510;2023-12-20T08:47:55;6.03;;;3.70;;
20966;SDS011;10642;50.682;18.510;2023-12-20T08:50:26;5.83;;;3.90;;
20966;SDS011;10642;50.682;18.510;2023-12-20T08:52:53;6.50;;;4.97;;
20966;SDS011;10642;50.682;18.510;2023-12-20T08:55:20;8.07;;;4.60;;
20966;SDS011;10642;50.682;18.510;2023-12-20T08:57:47;5.63;;;3.80;;
20966;SDS011;10642;50.682;18.510;2023-12-20T09:00:15;5.93;;;4.70;;
20966;SDS011;10642;50.682;18.510;2023-12-20T09:02:42;6.00;;;4.63;;
20966;SDS011;10642;50.682;18.510;2023-12-20T09:05:09;6.10;;;4.07;;
20966;SDS011;10642;50.682;18.510;2023-12-20T09:07:36;4.20;;;2.83;;
20966;SDS011;10642;50.682;18.510;2023-12-20T09:10:03;5.00;;;3.13;;
20966;SDS011;10642;50.682;18.510;2023-12-20T09:12:30;6.07;;;4.03;;
20966;SDS011;10642;50.682;18.510;2023-12-20T09:14:57;4.57;;;3.17;;
20966;SDS011;10642;50.682;18.510;2023-12-20T09:17:24;3.77;;;2.60;;
20966;SDS011;10642;50.682;18.510;2023-12-20T09:19:52;4.37;;;2.47;;
20966;SDS011;10642;50.682;18.510;2023-12-20T09:22:21;3.70;;;2.67;;
20966;SDS011;10642;50.682;18.510;2023-12-20T09:24:48;6.17;;;3.50;;
20966;SDS011;10642;50.682;18.510;2023-12-20T09:27:15;3.27;;;2.53;;
20966;SDS011;10642;50.682;18.510;2023-12-20T09:29:42;4.50;;;2.80;;
20966;SDS011;10642;50.682;18.510;2023-12-20T09:32:09;5.43;;;3.50;;
20966;SDS011;10642;50.682;18.510;2023-12-20T09:34:36;5.30;;;3.77;;
20966;SDS011;10642;50.682;18.510;2023-12-20T09:37:04;8.80;;;6.07;;
20966;SDS011;10642;50.682;18.510;2023-12-20T09:39:32;4.87;;;3.10;;
20966;SDS011;10642;50.682;18.510;2023-12-20T09:42:06;3.63;;;2.43;;
20966;SDS011;10642;50.682;18.510;2023-12-20T09:44:33;34.00;;;14.43;;
20966;SDS011;10642;50.682;18.510;2023-12-20T09:47:03;8.80;;;4.20;;
20966;SDS011;10642;50.682;18.510;2023-12-20T09:49:31;13.37;;;6.27;;
20966;SDS011;10642;50.682;18.510;2023-12-20T09:52:00;9.73;;;4.23;;
20966;SDS011;10642;50.682;18.510;2023-12-20T09:54:27;20.87;;;8.80;;
20966;SDS011;10642;50.682;18.510;2023-12-20T09:56:55;14.27;;;7.03;;
20966;SDS011;10642;50.682;18.510;2023-12-20T09:59:22;10.63;;;5.70;;
20966;SDS011;10642;50.682;18.510;2023-12-20T10:01:48;9.03;;;5.00;;
20966;SDS011;10642;50.682;18.510;2023-12-20T10:04:17;5.07;;;2.93;;
20966;SDS011;10642;50.682;18.510;2023-12-20T10:06:47;4.50;;;3.10;;
20966;SDS011;10642;50.682;18.510;2023-12-20T10:09:14;5.43;;;3.93;;
20966;SDS011;10642;50.682;18.510;2023-12-20T10:11:41;6.77;;;4.20;;
20966;SDS011;10642;50.682;18.510;2023-12-20T10:14:10;5.30;;;3.70;;
20966;SDS011;10642;50.682;18.510;2023-12-20T10:16:37;4.00;;;2.53;;
20966;SDS011;10642;50.682;18.510;2023-12-20T10:19:04;3.30;;;2.50;;
20966;SDS011;10642;50.682;18.510;2023-12-20T10:21:31;3.83;;;2.70;;
20966;SDS011;10642;50.682;18.510;2023-12-20T10:23:59;4.60;;;2.97;;
20966;SDS011;10642;50.682;18.510;2023-12-20T10:26:27;8.77;;;3.57;;
20966;SDS011;10642;50.682;18.510;2023-12-20T10:28:55;5.07;;;3.33;;
20966;SDS011;10642;50.682;18.510;2023-12-20T10:31:40;3.53;;;2.20;;
20966;SDS011;10642;50.682;18.510;2023-12-20T10:34:07;3.93;;;2.70;;
20966;SDS011;10642;50.682;18.510;2023-12-20T10:36:34;3.80;;;2.83;;
20966;SDS011;10642;50.682;18.510;2023-12-20T10:39:03;6.30;;;2.83;;
20966;SDS011;10642;50.682;18.510;2023-12-20T10:41:32;4.63;;;2.57;;
20966;SDS011;10642;50.682;18.510;2023-12-20T10:44:02;4.70;;;2.73;;
20966;SDS011;10642;50.682;18.510;2023-12-20T10:46:31;7.43;;;4.53;;
20966;SDS011;10642;50.682;18.510;2023-12-20T10:49:02;4.27;;;2.87;;
20966;SDS011;10642;50.682;18.510;2023-12-20T10:51:29;5.17;;;2.30;;
20966;SDS011;10642;50.682;18.510;2023-12-20T10:53:56;5.30;;;3.00;;
20966;SDS011;10642;50.682;18.510;2023-12-20T10:56:23;5.50;;;3.20;;
20966;SDS011;10642;50.682;18.510;2023-12-20T10:58:51;5.83;;;3.00;;
20966;SDS011;10642;50.682;18.510;2023-12-20T11:01:19;4.90;;;2.87;;
20966;SDS011;10642;50.682;18.510;2023-12-20T11:03:50;6.10;;;3.50;;
20966;SDS011;10642;50.682;18.510;2023-12-20T11:09:03;6.40;;;3.40;;
20966;SDS011;10642;50.682;18.510;2023-12-20T11:12:20;6.03;;;3.60;;
20966;SDS011;10642;50.682;18.510;2023-12-20T11:14:49;5.77;;;3.00;;
20966;SDS011;10642;50.682;18.510;2023-12-20T11:17:14;5.27;;;3.00;;
20966;SDS011;10642;50.682;18.510;2023-12-20T11:20:03;6.10;;;3.67;;
20966;SDS011;10642;50.682;18.510;2023-12-20T11:22:31;5.27;;;2.77;;
20966;SDS011;10642;50.682;18.510;2023-12-20T11:25:09;5.13;;;3.13;;
20966;SDS011;10642;50.682;18.510;2023-12-20T11:27:40;5.53;;;2.80;;
20966;SDS011;10642;50.682;18.510;2023-12-20T11:30:07;5.50;;;3.37;;
20966;SDS011;10642;50.682;18.510;2023-12-20T11:32:36;8.37;;;4.30;;
20966;SDS011;10642;50.682;18.510;2023-12-20T11:37:38;8.80;;;3.83;;
20966;SDS011;10642;50.682;18.510;2023-12-20T11:40:14;7.53;;;4.10;;
20966;SDS011;10642;50.682;18.510;2023-12-20T11:42:42;7.00;;;3.63;;
20966;SDS011;10642;50.682;18.510;2023-12-20T11:45:10;5.87;;;3.27;;
20966;SDS011;10642;50.682;18.510;2023-12-20T11:47:37;6.97;;;4.20;;
20966;SDS011;10642;50.682;18.510;2023-12-20T11:50:04;7.70;;;4.60;;
20966;SDS011;10642;50.682;18.510;2023-12-20T11:52:31;7.47;;;5.07;;
20966;SDS011;10642;50.682;18.510;2023-12-20T11:54:58;6.47;;;4.17;;
20966;SDS011;10642;50.682;18.510;2023-12-20T11:57:26;5.87;;;4.03;;
20966;SDS011;10642;50.682;18.510;2023-12-20T11:59:54;6.17;;;4.53;;
20966;SDS011;10642;50.682;18.510;2023-12-20T12:02:21;8.13;;;4.67;;
20966;SDS011;10642;50.682;18.510;2023-12-20T12:04:49;8.07;;;4.50;;
20966;SDS011;10642;50.682;18.510;2023-12-20T12:07:17;6.83;;;4.70;;
20966;SDS011;10642;50.682;18.510;2023-12-20T12:09:45;6.30;;;3.80;;
20966;SDS011;10642;50.682;18.510;2023-12-20T12:12:12;5.53;;;3.43;;
20966;SDS011;10642;50.682;18.510;2023-12-20T12:14:40;7.43;;;4.33;;
20966;SDS011;10642;50.682;18.510;2023-12-20T12:17:10;9.27;;;4.20;;
20966;SDS011;10642;50.682;18.510;2023-12-20T12:19:37;10.83;;;6.73;;
20966;SDS011;10642;50.682;18.510;2023-12-20T12:22:07;10.03;;;5.00;;
20966;SDS011;10642;50.682;18.510;2023-12-20T12:24:41;11.23;;;5.90;;
20966;SDS011;10642;50.682;18.510;2023-12-20T12:27:08;35.83;;;16.47;;
20966;SDS011;10642;50.682;18.510;2023-12-20T12:29:35;9.57;;;3.70;;
20966;SDS011;10642;50.682;18.510;2023-12-20T12:32:08;6.13;;;3.77;;
20966;SDS011;10642;50.682;18.510;2023-12-20T12:34:36;6.83;;;3.53;;
20966;SDS011;10642;50.682;18.510;2023-12-20T12:37:03;6.63;;;3.33;;
20966;SDS011;10642;50.682;18.510;2023-12-20T12:39:30;7.83;;;3.20;;
20966;SDS011;10642;50.682;18.510;2023-12-20T12:41:58;6.50;;;3.27;;
20966;SDS011;10642;50.682;18.510;2023-12-20T12:44:24;6.03;;;3.20;;
20966;SDS011;10642;50.682;18.510;2023-12-20T12:46:52;5.70;;;3.47;;
20966;SDS011;10642;50.682;18.510;2023-12-20T12:49:20;7.03;;;3.63;;
20966;SDS011;10642;50.682;18.510;2023-12-20T12:51:51;7.53;;;3.77;;
20966;SDS011;10642;50.682;18.510;2023-12-20T12:54:18;10.07;;;4.83;;
20966;SDS011;10642;50.682;18.510;2023-12-20T12:56:45;11.10;;;6.20;;
20966;SDS011;10642;50.682;18.510;2023-12-20T12:59:14;11.43;;;5.73;;
20966;SDS011;10642;50.682;18.510;2023-12-20T13:01:41;6.50;;;3.60;;
20966;SDS011;10642;50.682;18.510;2023-12-20T13:04:08;6.80;;;3.90;;
20966;SDS011;10642;50.682;18.510;2023-12-20T13:06:38;9.73;;;4.40;;
20966;SDS011;10642;50.682;18.510;2023-12-20T13:09:05;9.87;;;4.70;;
20966;SDS011;10642;50.682;18.510;2023-12-20T13:11:33;10.53;;;4.07;;
20966;SDS011;10642;50.682;18.510;2023-12-20T13:14:01;7.47;;;4.03;;
20966;SDS011;10642;50.682;18.510;2023-12-20T13:16:28;15.57;;;8.53;;
20966;SDS011;10642;50.682;18.510;2023-12-20T13:18:55;10.33;;;5.50;;
20966;SDS011;10642;50.682;18.510;2023-12-20T13:21:23;11.60;;;5.67;;
20966;SDS011;10642;50.682;18.510;2023-12-20T13:23:49;9.30;;;4.73;;
20966;SDS011;10642;50.682;18.510;2023-12-20T13:26:16;8.03;;;3.80;;
20966;SDS011;10642;50.682;18.510;2023-12-20T13:28:44;7.70;;;3.80;;
20966;SDS011;10642;50.682;18.510;2023-12-20T13:31:11;7.10;;;4.10;;
20966;SDS011;10642;50.682;18.510;2023-12-20T13:33:38;7.70;;;3.90;;
20966;SDS011;10642;50.682;18.510;2023-12-20T13:36:05;7.30;;;4.17;;
20966;SDS011;10642;50.682;18.510;2023-12-20T13:38:33;6.57;;;3.97;;
20966;SDS011;10642;50.682;18.510;2023-12-20T13:41:00;6.13;;;3.00;;
20966;SDS011;10642;50.682;18.510;2023-12-20T13:43:27;6.97;;;3.97;;
20966;SDS011;10642;50.682;18.510;2023-12-20T13:45:55;5.63;;;3.73;;
20966;SDS011;10642;50.682;18.510;2023-12-20T13:48:22;7.87;;;4.23;;
20966;SDS011;10642;50.682;18.510;2023-12-20T13:50:50;7.93;;;4.30;;
20966;SDS011;10642;50.682;18.510;2023-12-20T13:53:17;7.30;;;3.30;;
20966;SDS011;10642;50.682;18.510;2023-12-20T13:55:44;7.83;;;4.50;;
20966;SDS011;10642;50.682;18.510;2023-12-20T13:58:10;13.83;;;5.97;;
20966;SDS011;10642;50.682;18.510;2023-12-20T14:00:37;12.60;;;5.23;;
20966;SDS011;10642;50.682;18.510;2023-12-20T14:03:05;15.37;;;6.83;;
20966;SDS011;10642;50.682;18.510;2023-12-20T14:05:32;7.83;;;4.20;;
20966;SDS011;10642;50.682;18.510;2023-12-20T14:08:00;7.43;;;4.20;;
20966;SDS011;10642;50.682;18.510;2023-12-20T14:10:27;4.97;;;2.67;;
20966;SDS011;10642;50.682;18.510;2023-12-20T14:12:54;5.77;;;3.03;;
20966;SDS011;10642;50.682;18.510;2023-12-20T14:15:22;5.30;;;2.90;;
20966;SDS011;10642;50.682;18.510;2023-12-20T14:17:52;6.10;;;3.13;;
20966;SDS011;10642;50.682;18.510;2023-12-20T14:20:19;4.37;;;2.80;;
20966;SDS011;10642;50.682;18.510;2023-12-20T14:22:46;5.93;;;3.37;;
20966;SDS011;10642;50.682;18.510;2023-12-20T14:25:13;5.63;;;3.00;;
20966;SDS011;10642;50.682;18.510;2023-12-20T14:27:41;6.30;;;3.70;;
20966;SDS011;10642;50.682;18.510;2023-12-20T14:30:11;5.67;;;3.30;;
20966;SDS011;10642;50.682;18.510;2023-12-20T14:32:41;5.63;;;3.30;;
20966;SDS011;10642;50.682;18.510;2023-12-20T14:35:09;6.17;;;2.90;;
20966;SDS011;10642;50.682;18.510;2023-12-20T14:37:36;6.27;;;3.20;;